Time;durP1;ratioP1;P1;durP2;ratioP2;P2;SDS_P1;SDS_P2;PMS_P1;PMS_P2;Temp;Humidity;BMP_temperature;BMP_pressure;BME280_temperature;BME280_humidity;BME280_pressure;Samples;Min_cycle;Max_cycle;Signal;HPM_P1;HPM_P2
2023/08/08 00:01:55;;;;;;;;;4.00;4.00;;;;;19.11;100.00;98397.06;6291747;27;96278;-62
2023/08/08 00:04:59;;;;;;;;;3.00;3.00;;;;;19.02;100.00;98401.53;6290027;27;96711;-62
2023/08/08 00:08:02;;;;;;;;;5.00;5.00;;;;;19.05;100.00;98403.72;6288894;27;96677;-62
2023/08/08 00:11:07;;;;;;;;;3.00;2.80;;;;;18.97;100.00;98409.78;6290423;27;96912;-62
2023/08/08 00:14:10;;;;;;;;;2.00;2.00;;;;;19.11;100.00;98407.22;6269796;27;96624;-62
2023/08/08 00:17:13;;;;;;;;;2.00;1.80;;;;;19.09;100.00;98410.22;6259991;27;98434;-62
2023/08/08 00:20:16;;;;;;;;;4.00;3.00;;;;;19.10;100.00;98413.78;6272774;27;98414;-62
2023/08/08 00:23:20;;;;;;;;;4.00;3.40;;;;;18.98;100.00;98404.03;6288237;27;99529;-63
2023/08/08 00:26:24;;;;;;;;;3.50;3.50;;;;;18.86;100.00;98398.13;6272749;27;98406;-62
2023/08/08 00:29:28;;;;;;;;;2.00;2.00;;;;;18.81;100.00;98413.78;6290753;27;96195;-62
2023/08/08 00:32:31;;;;;;;;;4.00;4.00;;;;;18.82;100.00;98418.09;6291536;27;97584;-62
2023/08/08 00:35:34;;;;;;;;;5.00;4.50;;;;;18.74;100.00;98416.00;6289167;27;96475;-62
2023/08/08 00:38:37;;;;;;;;;3.00;3.00;;;;;18.78;100.00;98426.06;6289029;27;97243;-62
2023/08/08 00:41:42;;;;;;;;;3.00;3.00;;;;;18.80;100.00;98415.69;6271368;27;96660;-62
2023/08/08 00:44:45;;;;;;;;;2.60;2.60;;;;;18.82;100.00;98426.31;6271381;27;96756;-62
2023/08/08 00:47:48;;;;;;;;;3.00;3.00;;;;;18.86;100.00;98428.16;6271992;27;97890;-62
2023/08/08 00:50:51;;;;;;;;;2.00;2.00;;;;;18.84;100.00;98430.41;6250463;27;96808;-62
2023/08/08 00:53:56;;;;;;;;;1.20;1.20;;;;;18.82;100.00;98429.03;6271821;27;96811;-62
2023/08/08 00:57:01;;;;;;;;;2.00;2.00;;;;;18.93;100.00;98445.06;6289500;27;96410;-62
2023/08/08 01:00:07;;;;;;;;;4.50;4.00;;;;;18.89;100.00;98441.28;6270759;27;96498;-62
2023/08/08 01:03:10;;;;;;;;;3.00;3.00;;;;;18.73;100.00;98445.22;6271434;27;96393;-62
2023/08/08 01:06:20;;;;;;;;;2.60;2.60;;;;;18.72;100.00;98451.78;6286921;27;97458;-62
2023/08/08 01:09:29;;;;;;;;;2.00;2.00;;;;;18.59;100.00;98464.16;6288913;27;96964;-62
2023/08/08 01:12:39;;;;;;;;;3.00;3.00;;;;;18.59;100.00;98460.63;6271449;27;96850;-62
2023/08/08 01:15:47;;;;;;;;;2.00;2.00;;;;;18.59;100.00;98464.16;6270999;27;98414;-62
2023/08/08 01:18:51;;;;;;;;;2.20;2.20;;;;;18.62;100.00;98468.22;6289543;27;96847;-64
2023/08/08 01:21:58;;;;;;;;;3.00;3.00;;;;;18.51;100.00;98470.22;6274739;27;96502;-62
2023/08/08 01:25:05;;;;;;;;;3.60;3.60;;;;;18.56;100.00;98459.28;6270798;27;98356;-62
2023/08/08 01:28:09;;;;;;;;;3.00;3.00;;;;;18.54;100.00;98475.13;6269552;27;96891;-62
2023/08/08 01:31:12;;;;;;;;;4.00;3.00;;;;;18.52;100.00;98474.53;6289650;27;96266;-62
2023/08/08 01:34:16;;;;;;;;;3.00;3.00;;;;;18.65;100.00;98475.06;6283858;27;96487;-62
2023/08/08 01:37:25;;;;;;;;;4.00;4.00;;;;;18.45;100.00;98463.16;6281709;27;96455;-62
2023/08/08 01:40:31;;;;;;;;;4.00;4.00;;;;;18.44;100.00;98468.88;6251410;27;96735;-62
2023/08/08 01:43:35;;;;;;;;;2.00;2.00;;;;;18.48;100.00;98472.66;6287125;27;96546;-62
2023/08/08 01:46:38;;;;;;;;;2.20;2.20;;;;;18.30;100.00;98471.44;6288152;27;96345;-62
2023/08/08 01:49:42;;;;;;;;;2.60;2.60;;;;;18.42;100.00;98465.63;6289385;27;96419;-62
2023/08/08 01:52:45;;;;;;;;;2.50;2.50;;;;;18.41;100.00;98470.28;6288193;27;96511;-62
2023/08/08 01:55:52;;;;;;;;;3.00;3.00;;;;;18.49;100.00;98471.56;6269905;27;98974;-63
2023/08/08 01:58:55;;;;;;;;;2.00;2.00;;;;;18.42;100.00;98479.28;6268056;27;97329;-62
2023/08/08 02:01:58;;;;;;;;;4.00;3.00;;;;;18.43;100.00;98462.59;6270636;27;96876;-62
2023/08/08 02:05:02;;;;;;;;;2.60;2.60;;;;;18.31;100.00;98466.78;6288215;27;96313;-62
2023/08/08 02:08:06;;;;;;;;;2.00;2.00;;;;;18.21;100.00;98469.56;6269862;27;96585;-62
2023/08/08 02:11:12;;;;;;;;;3.00;3.00;;;;;18.30;100.00;98474.16;6269399;27;98419;-62
2023/08/08 02:14:15;;;;;;;;;3.00;3.00;;;;;18.22;100.00;98482.13;6270396;27;96454;-63
2023/08/08 02:17:18;;;;;;;;;3.60;3.60;;;;;18.18;100.00;98476.38;6269589;27;99025;-62
2023/08/08 02:20:21;;;;;;;;;3.00;3.00;;;;;18.18;100.00;98479.94;6288012;27;96440;-63
2023/08/08 02:23:26;;;;;;;;;3.25;3.00;;;;;18.21;100.00;98483.22;6284259;27;96725;-62
2023/08/08 02:26:31;;;;;;;;;3.00;3.00;;;;;18.22;100.00;98491.13;6269176;27;96420;-62
2023/08/08 02:29:34;;;;;;;;;3.00;3.00;;;;;18.22;100.00;98484.84;6270871;27;96505;-62
2023/08/08 02:32:37;;;;;;;;;2.60;2.60;;;;;18.22;100.00;98493.03;6288184;27;96372;-63
2023/08/08 02:35:41;;;;;;;;;4.67;4.00;;;;;18.23;100.00;98490.00;6287353;27;96417;-63
2023/08/08 02:38:44;;;;;;;;;4.00;4.00;;;;;18.14;100.00;98491.69;6288050;27;97117;-63
2023/08/08 02:41:49;;;;;;;;;4.00;4.00;;;;;18.11;100.00;98500.44;6248303;27;96678;-62
2023/08/08 02:44:52;;;;;;;;;2.25;2.25;;;;;18.07;100.00;98494.75;6286530;27;96370;-63
2023/08/08 02:47:55;;;;;;;;;3.00;3.00;;;;;18.07;100.00;98499.38;6270545;27;96344;-63
2023/08/08 02:50:59;;;;;;;;;3.75;3.75;;;;;18.08;100.00;98492.84;6270213;27;97621;-63
2023/08/08 02:54:03;;;;;;;;;3.40;3.40;;;;;18.01;100.00;98501.31;6251320;27;97011;-63
2023/08/08 02:57:11;;;;;;;;;4.00;3.20;;;;;17.90;100.00;98496.16;6287661;27;96465;-62
2023/08/08 03:00:17;;;;;;;;;3.00;3.00;;;;;17.97;100.00;98507.59;6268927;27;97079;-62
2023/08/08 03:03:24;;;;;;;;;5.00;4.00;;;;;17.93;100.00;98510.06;6252679;27;96688;-62
2023/08/08 03:06:28;;;;;;;;;4.00;4.00;;;;;17.84;100.00;98511.72;6287144;27;96306;-62
2023/08/08 03:09:32;;;;;;;;;3.00;3.00;;;;;17.90;100.00;98518.78;6286742;27;96572;-62
2023/08/08 03:12:37;;;;;;;;;4.00;4.00;;;;;17.93;100.00;98520.16;6267270;27;96764;-63
2023/08/08 03:15:42;;;;;;;;;3.00;3.00;;;;;17.92;100.00;98524.81;6284345;27;96685;-62
2023/08/08 03:18:46;;;;;;;;;3.00;3.00;;;;;17.79;100.00;98525.38;6286269;27;96963;-63
2023/08/08 03:21:50;;;;;;;;;1.50;1.50;;;;;17.75;100.00;98535.19;6281735;27;96752;-62
2023/08/08 03:24:53;;;;;;;;;3.60;3.60;;;;;17.83;100.00;98536.56;6267662;27;99153;-63
2023/08/08 03:27:58;;;;;;;;;3.00;3.00;;;;;17.77;100.00;98541.22;6250131;27;98595;-62
2023/08/08 03:31:03;;;;;;;;;3.00;3.00;;;;;17.75;100.00;98544.19;6265907;27;96360;-62
2023/08/08 03:34:07;;;;;;;;;4.00;3.60;;;;;17.67;100.00;98547.50;6281377;27;96662;-63
2023/08/08 03:37:11;;;;;;;;;3.00;2.80;;;;;17.76;100.00;98542.28;6249290;27;96706;-63
2023/08/08 03:40:14;;;;;;;;;3.00;3.00;;;;;17.85;100.00;98550.72;6268277;27;96672;-63
2023/08/08 03:43:19;;;;;;;;;2.40;2.40;;;;;17.86;100.00;98547.72;6281952;27;96944;-63
2023/08/08 03:46:23;;;;;;;;;3.00;3.00;;;;;17.88;100.00;98551.00;6267809;27;96420;-62
2023/08/08 03:49:26;;;;;;;;;4.00;3.40;;;;;17.89;100.00;98558.06;6284012;27;97377;-63
2023/08/08 03:52:30;;;;;;;;;3.00;3.00;;;;;17.88;100.00;98559.19;6268153;27;96468;-62
2023/08/08 03:55:33;;;;;;;;;2.80;2.80;;;;;17.82;100.00;98557.56;6284709;27;96399;-63
2023/08/08 03:58:39;;;;;;;;;3.00;2.00;;;;;17.93;100.00;98574.72;6282469;27;96317;-62
2023/08/08 04:01:42;;;;;;;;;3.00;3.00;;;;;17.93;100.00;98574.72;6281955;27;96391;-62
2023/08/08 04:04:46;;;;;;;;;2.60;2.60;;;;;17.97;100.00;98573.06;6266525;27;96266;-63
2023/08/08 04:07:49;;;;;;;;;2.00;2.00;;;;;18.05;100.00;98575.22;6292593;27;96396;-62
2023/08/08 04:10:53;;;;;;;;;2.00;2.00;;;;;18.01;100.00;98585.03;6259613;27;98473;-64
2023/08/08 04:13:58;;;;;;;;;3.40;3.00;;;;;18.10;100.00;98586.94;6285846;27;96614;-62
2023/08/08 04:17:02;;;;;;;;;3.00;3.00;;;;;18.12;100.00;98581.19;6265584;27;96782;-62
2023/08/08 04:20:07;;;;;;;;;2.80;2.80;;;;;18.26;100.00;98603.25;6286599;27;96913;-62
2023/08/08 04:23:10;;;;;;;;;4.00;3.00;;;;;18.42;100.00;98607.56;6284614;27;96608;-64
2023/08/08 04:26:14;;;;;;;;;3.00;2.00;;;;;18.54;100.00;98613.53;6265437;27;97241;-63
2023/08/08 04:29:19;;;;;;;;;4.00;4.00;;;;;18.63;100.00;98611.84;6266787;27;96327;-62
2023/08/08 04:32:22;;;;;;;;;3.00;2.75;;;;;18.74;100.00;98623.53;6285825;27;97616;-62
2023/08/08 04:35:25;;;;;;;;;3.00;3.00;;;;;18.84;100.00;98605.19;6285887;27;96796;-63
2023/08/08 04:38:29;;;;;;;;;2.00;2.00;;;;;19.06;100.00;98617.63;6271548;27;96778;-62
2023/08/08 04:41:32;;;;;;;;;3.00;2.00;;;;;19.16;100.00;98623.81;6290573;27;97778;-63
2023/08/08 04:44:36;;;;;;;;;4.00;4.00;;;;;19.20;100.00;98624.09;6277622;27;96680;-62
2023/08/08 04:47:39;;;;;;;;;3.00;2.00;;;;;19.27;100.00;98633.59;6286212;27;96368;-62
2023/08/08 04:50:43;;;;;;;;;3.00;3.00;;;;;19.45;100.00;98627.47;6289643;27;97519;-62
2023/08/08 04:53:46;;;;;;;;;2.00;2.00;;;;;19.62;100.00;98631.72;6288463;27;96532;-62
2023/08/08 04:56:49;;;;;;;;;2.00;2.00;;;;;19.63;100.00;98625.97;6263919;27;97233;-62
2023/08/08 04:59:54;;;;;;;;;3.00;2.00;;;;;19.69;100.00;98627.56;6263005;27;96699;-63
2023/08/08 05:02:57;;;;;;;;;2.00;2.00;;;;;19.81;100.00;98629.91;6265121;27;96353;-62
2023/08/08 05:06:00;;;;;;;;;3.80;3.00;;;;;19.83;100.00;98628.53;6264872;27;96739;-62
2023/08/08 05:09:03;;;;;;;;;2.80;2.80;;;;;19.93;100.00;98627.63;6261493;27;96631;-62
2023/08/08 05:12:07;;;;;;;;;3.60;3.60;;;;;19.87;100.00;98624.09;6265117;27;96445;-62
2023/08/08 05:15:12;;;;;;;;;2.00;2.00;;;;;19.48;100.00;98581.53;6257641;27;96501;-62
2023/08/08 05:18:15;;;;;;;;;3.00;3.00;;;;;19.85;100.00;98630.97;6248844;27;96418;-62
2023/08/08 05:21:20;;;;;;;;;1.50;1.50;;;;;19.92;100.00;98636.91;6264948;27;96558;-62
2023/08/08 05:24:23;;;;;;;;;3.00;3.00;;;;;19.89;100.00;98645.69;6263583;27;98337;-62
2023/08/08 05:27:26;;;;;;;;;2.60;2.60;;;;;19.82;100.00;98645.22;6229675;27;98474;-62
2023/08/08 05:30:31;;;;;;;;;3.00;3.00;;;;;19.78;100.00;98645.00;6252169;27;97039;-62
2023/08/08 05:33:34;;;;;;;;;2.50;2.50;;;;;19.81;100.00;98646.31;6252737;27;98140;-62
2023/08/08 05:36:37;;;;;;;;;2.00;2.00;;;;;19.82;100.00;98643.31;6259691;27;96762;-63
2023/08/08 05:39:41;;;;;;;;;3.00;3.00;;;;;19.85;100.00;98639.97;6259007;27;97017;-63
2023/08/08 05:42:44;;;;;;;;;2.00;2.00;;;;;19.92;100.00;98634.19;6261561;27;96507;-63
2023/08/08 05:45:49;;;;;;;;;2.00;2.00;;;;;19.96;100.00;98624.28;6276218;27;97829;-62
2023/08/08 05:48:52;;;;;;;;;2.00;2.00;;;;;20.02;100.00;98625.06;6260799;27;96700;-62
2023/08/08 05:51:55;;;;;;;;;2.00;2.00;;;;;19.95;100.00;98630.03;6260101;27;97230;-63
2023/08/08 05:55:00;;;;;;;;;2.00;2.00;;;;;19.95;100.00;98619.09;6275739;27;97462;-62
2023/08/08 05:58:04;;;;;;;;;2.00;2.00;;;;;20.07;100.00;98625.00;6260920;27;96601;-62
2023/08/08 06:01:09;;;;;;;;;3.00;3.00;;;;;20.13;100.00;98619.19;6265120;27;96778;-62
2023/08/08 06:04:13;;;;;;;;;3.00;3.00;;;;;20.19;100.00;98617.19;6258851;27;96800;-62
2023/08/08 06:07:17;;;;;;;;;2.80;2.80;;;;;20.38;100.00;98609.09;6260414;27;96521;-62
2023/08/08 06:10:20;;;;;;;;;2.20;2.20;;;;;20.40;100.00;98590.44;6261903;27;97240;-63
2023/08/08 06:13:23;;;;;;;;;3.40;3.00;;;;;20.48;100.00;98587.03;6262334;27;99085;-62
2023/08/08 06:16:28;;;;;;;;;1.00;1.00;;;;;20.58;100.00;98579.50;6245755;27;98404;-63
2023/08/08 06:19:32;;;;;;;;;2.00;2.00;;;;;20.81;100.00;98577.84;6255418;27;97208;-62
2023/08/08 06:22:35;;;;;;;;;1.00;1.00;;;;;20.76;100.00;98572.44;6250992;27;96402;-62
2023/08/08 06:25:39;;;;;;;;;4.00;3.60;;;;;20.83;100.00;98567.38;6253403;27;96645;-62
2023/08/08 06:28:43;;;;;;;;;3.00;3.00;;;;;21.02;100.00;98570.13;6250054;27;96829;-62
2023/08/08 06:31:47;;;;;;;;;2.00;2.00;;;;;21.13;100.00;98566.13;6244080;27;96822;-64
2023/08/08 06:34:51;;;;;;;;;1.40;1.40;;;;;21.05;100.00;98572.28;6249502;27;96497;-62
2023/08/08 06:37:54;;;;;;;;;2.00;2.00;;;;;21.06;100.00;98577.44;6252623;27;96335;-63
2023/08/08 06:40:57;;;;;;;;;2.40;2.00;;;;;21.20;100.00;98568.53;6251294;27;96723;-62
2023/08/08 06:44:00;;;;;;;;;2.00;2.00;;;;;21.43;100.00;98567.59;6253473;27;96342;-62
2023/08/08 06:47:05;;;;;;;;;1.00;1.00;;;;;21.66;100.00;98566.63;6251141;27;96359;-63
2023/08/08 06:50:09;;;;;;;;;1.00;1.00;;;;;21.77;100.00;98570.81;6258604;27;96937;-64
2023/08/08 06:53:13;;;;;;;;;1.00;1.00;;;;;21.90;100.00;98566.47;6260387;27;96515;-63
2023/08/08 06:56:16;;;;;;;;;1.00;1.00;;;;;21.90;100.00;98561.78;6258819;27;96404;-63
2023/08/08 06:59:19;;;;;;;;;2.60;2.00;;;;;22.16;100.00;98558.59;6258764;27;96377;-62
2023/08/08 07:02:24;;;;;;;;;3.00;3.00;;;;;22.17;100.00;98554.72;6286357;27;96326;-63
2023/08/08 07:05:27;;;;;;;;;3.00;3.00;;;;;22.34;100.00;98558.47;6245860;27;97270;-63
2023/08/08 07:08:30;;;;;;;;;2.00;2.00;;;;;22.23;100.00;98559.00;6260331;27;98467;-63
2023/08/08 07:11:33;;;;;;;;;1.80;1.80;;;;;22.30;100.00;98554.72;6270955;27;96552;-63
2023/08/08 07:14:37;;;;;;;;;1.00;1.00;;;;;22.42;100.00;98543.22;6265535;27;98375;-64
2023/08/08 07:17:41;;;;;;;;;2.00;2.00;;;;;22.61;100.00;98551.34;6266922;27;97230;-64
2023/08/08 07:20:45;;;;;;;;;3.80;3.00;;;;;22.54;100.00;98542.69;6270607;27;96844;-63
2023/08/08 07:23:48;;;;;;;;;2.60;2.60;;;;;22.48;100.00;98564.75;6268525;27;96714;-63
2023/08/08 07:26:51;;;;;;;;;1.60;1.00;;;;;22.59;100.00;98559.06;6269194;27;96353;-63
2023/08/08 07:29:54;;;;;;;;;3.00;2.00;;;;;22.76;100.00;98564.78;6285844;27;96678;-62
2023/08/08 07:32:59;;;;;;;;;2.00;2.00;;;;;22.91;100.00;98561.69;6285237;27;96571;-63
2023/08/08 07:36:02;;;;;;;;;3.00;2.00;;;;;23.01;100.00;98564.19;6267078;27;99324;-63
2023/08/08 07:39:05;;;;;;;;;2.50;2.00;;;;;23.18;100.00;98583.56;6254531;27;96723;-64
2023/08/08 07:42:08;;;;;;;;;2.25;2.00;;;;;23.00;100.00;98556.25;6286753;27;96926;-63
2023/08/08 07:45:11;;;;;;;;;2.00;2.00;;;;;23.25;100.00;98569.41;6287357;27;96465;-64
2023/08/08 07:48:16;;;;;;;;;3.00;3.00;;;;;23.36;100.00;98575.47;6268023;27;98461;-63
2023/08/08 07:51:19;;;;;;;;;3.00;2.60;;;;;23.46;100.00;98561.47;6260678;27;96916;-63
2023/08/08 07:54:22;;;;;;;;;2.20;2.20;;;;;23.81;100.00;98568.00;6286530;27;96429;-64
2023/08/08 07:57:27;;;;;;;;;1.25;1.00;;;;;24.27;100.00;98567.59;6285644;27;96481;-63
2023/08/08 08:00:31;;;;;;;;;1.00;1.00;;;;;24.25;100.00;98567.09;6272252;27;96570;-63
2023/08/08 08:03:35;;;;;;;;;1.00;0.80;;;;;24.33;100.00;98585.63;6265574;27;96318;-63
2023/08/08 08:06:38;;;;;;;;;1.25;1.00;;;;;24.21;100.00;98590.91;6265847;27;96319;-64
2023/08/08 08:09:45;;;;;;;;;2.00;1.00;;;;;24.06;100.00;98614.13;6267905;27;96769;-63
2023/08/08 08:12:48;;;;;;;;;2.00;2.00;;;;;23.91;100.00;98628.28;6288294;27;96474;-63
2023/08/08 08:15:51;;;;;;;;;3.00;3.00;;;;;23.83;100.00;98624.38;6266388;27;97294;-63
2023/08/08 08:18:56;;;;;;;;;1.00;1.00;;;;;23.90;100.00;98643.19;6272820;27;96343;-64
2023/08/08 08:21:59;;;;;;;;;2.00;2.00;;;;;23.84;100.00;98660.97;6271836;27;96805;-63
2023/08/08 08:25:02;;;;;;;;;3.00;2.00;;;;;24.12;100.00;98677.03;6262132;27;98523;-63
2023/08/08 08:28:06;;;;;;;;;2.00;2.00;;;;;24.06;100.00;98664.53;6272198;27;98493;-63
2023/08/08 08:31:09;;;;;;;;;2.80;2.00;;;;;24.58;100.00;98662.84;6255342;27;98594;-63
2023/08/08 08:34:14;;;;;;;;;3.00;3.00;;;;;25.13;100.00;98670.66;6263155;27;99101;-63
2023/08/08 08:37:18;;;;;;;;;2.00;2.00;;;;;25.31;100.00;98658.53;6290913;27;96531;-63
2023/08/08 08:40:21;;;;;;;;;3.00;3.00;;;;;25.12;94.30;98659.97;6291540;27;96364;-64
2023/08/08 08:43:24;;;;;;;;;2.00;2.00;;;;;25.15;97.27;98662.06;6281457;27;96685;-63
2023/08/08 08:46:29;;;;;;;;;2.00;2.00;;;;;25.13;95.70;98656.03;6290723;27;96267;-63
2023/08/08 08:49:35;;;;;;;;;2.00;2.00;;;;;24.86;92.32;98663.44;6272694;27;96547;-63
2023/08/08 08:52:38;;;;;;;;;3.00;3.00;;;;;24.74;96.72;98651.38;6272541;27;96278;-63
2023/08/08 08:55:42;;;;;;;;;1.00;1.00;;;;;24.87;100.00;98656.84;6290727;27;96902;-63
2023/08/08 08:58:45;;;;;;;;;2.60;2.60;;;;;24.82;91.46;98653.38;6260376;27;96431;-64
2023/08/08 09:01:48;;;;;;;;;2.60;2.60;;;;;24.82;96.65;98659.69;6250684;27;97131;-64
2023/08/08 09:04:54;;;;;;;;;2.40;2.40;;;;;24.72;96.14;98645.41;6290084;27;96832;-63
2023/08/08 09:07:58;;;;;;;;;1.80;1.80;;;;;24.41;96.24;98648.19;6290176;27;96559;-64
2023/08/08 09:11:02;;;;;;;;;3.40;3.00;;;;;24.49;94.61;98656.50;6274923;27;96894;-63
2023/08/08 09:14:05;;;;;;;;;3.00;3.00;;;;;24.57;95.02;98643.88;6269522;27;98424;-64
2023/08/08 09:17:13;;;;;;;;;2.60;2.60;;;;;24.86;95.39;98638.63;6289774;27;97152;-65
2023/08/08 09:20:18;;;;;;;;;2.00;2.00;;;;;25.05;86.22;98624.56;6268742;27;96614;-63
2023/08/08 09:23:21;;;;;;;;;2.50;2.50;;;;;25.53;87.21;98635.44;6270300;27;96716;-63
2023/08/08 09:26:25;;;;;;;;;4.00;4.00;;;;;25.71;83.78;98636.25;6268729;27;96659;-64
2023/08/08 09:29:28;;;;;;;;;3.60;3.60;;;;;25.52;80.20;98641.28;6276971;27;96118;-64
2023/08/08 09:32:32;;;;;;;;;4.00;4.00;;;;;25.25;78.08;98636.91;6289773;27;96377;-63
2023/08/08 09:35:40;;;;;;;;;1.00;1.00;;;;;25.06;85.18;98637.22;6283876;27;96297;-64
2023/08/08 09:38:43;;;;;;;;;2.00;2.00;;;;;24.78;83.03;98644.91;6289977;27;97277;-63
2023/08/08 09:41:47;;;;;;;;;2.00;1.20;;;;;25.15;84.88;98642.75;6269320;27;98456;-65
2023/08/08 09:44:51;;;;;;;;;2.00;2.00;;;;;25.29;81.56;98641.47;6287989;27;96826;-63
2023/08/08 09:47:55;;;;;;;;;2.00;2.00;;;;;25.92;80.18;98625.34;6269725;27;96824;-63
2023/08/08 09:51:00;;;;;;;;;3.00;3.00;;;;;26.32;81.89;98636.97;6288498;27;96326;-64
2023/08/08 09:54:06;;;;;;;;;3.00;3.00;;;;;26.05;77.11;98636.19;6289613;27;96513;-63
2023/08/08 09:57:11;;;;;;;;;4.60;4.40;;;;;25.95;76.39;98628.25;6271583;27;96420;-63
2023/08/08 10:00:16;;;;;;;;;3.00;3.00;;;;;25.78;78.50;98629.13;6272934;27;96450;-64
2023/08/08 10:03:20;;;;;;;;;2.00;2.00;;;;;25.52;78.73;98616.44;6289507;27;96458;-64
2023/08/08 10:06:25;;;;;;;;;1.00;1.00;;;;;25.52;81.45;98617.25;6289771;27;96504;-64
2023/08/08 10:09:28;;;;;;;;;3.00;2.00;;;;;25.33;81.83;98625.88;6270899;27;96872;-63
2023/08/08 10:12:32;;;;;;;;;2.00;1.80;;;;;25.57;80.77;98617.13;6253424;27;96819;-64
2023/08/08 10:15:38;;;;;;;;;4.00;3.00;;;;;25.81;78.85;98613.84;6254230;27;96459;-63
2023/08/08 10:18:42;;;;;;;;;2.00;2.00;;;;;26.03;79.08;98618.34;6289453;27;96342;-63
2023/08/08 10:21:46;;;;;;;;;3.40;3.00;;;;;26.30;80.80;98617.94;6289526;27;96897;-63
2023/08/08 10:24:53;;;;;;;;;2.50;2.00;;;;;26.19;79.99;98606.41;6261672;27;96692;-63
2023/08/08 10:28:06;;;;;;;;;2.75;2.00;;;;;25.65;73.91;98607.22;6289231;27;96561;-64
2023/08/08 10:31:28;;;;;;;;;1.00;1.00;;;;;25.37;72.23;98606.72;6261536;27;98444;-64
2023/08/08 10:34:39;;;;;;;;;1.25;1.25;;;;;25.28;74.94;98614.19;6287335;27;96546;-64
2023/08/08 10:37:54;;;;;;;;;1.00;0.20;;;;;25.18;76.44;98597.94;6266212;27;97018;-63
2023/08/08 10:40:58;;;;;;;;;1.00;1.00;;;;;25.01;75.50;98605.09;6288871;27;96989;-63
2023/08/08 10:44:01;;;;;;;;;2.00;2.00;;;;;25.05;77.35;98602.50;6288854;27;96495;-64
2023/08/08 10:47:05;;;;;;;;;2.00;2.00;;;;;25.30;78.46;98604.47;6288604;27;96552;-63
2023/08/08 10:50:11;;;;;;;;;4.00;3.00;;;;;25.29;79.12;98602.84;6269670;27;98714;-63
2023/08/08 10:53:16;;;;;;;;;4.00;3.00;;;;;25.46;80.17;98600.06;6269553;27;96484;-63
2023/08/08 10:56:20;;;;;;;;;1.00;1.00;;;;;25.54;79.09;98594.84;6272684;27;96385;-63
2023/08/08 10:59:25;;;;;;;;;2.00;2.00;;;;;25.51;79.50;98592.75;6293112;27;96634;-63
2023/08/08 11:02:29;;;;;;;;;2.00;2.00;;;;;25.88;80.00;98598.41;6288550;27;96272;-63
2023/08/08 11:05:35;;;;;;;;;2.00;1.75;;;;;25.95;81.75;98606.16;6288337;27;96158;-63
2023/08/08 11:08:40;;;;;;;;;3.00;3.00;;;;;25.92;83.54;98598.53;6287966;27;96264;-64
2023/08/08 11:11:45;;;;;;;;;2.60;2.00;;;;;25.83;84.51;98597.75;6290587;27;96368;-64
2023/08/08 11:14:48;;;;;;;;;2.20;1.80;;;;;25.76;84.59;98601.00;6287766;27;96293;-63
2023/08/08 11:17:52;;;;;;;;;1.60;1.60;;;;;25.57;85.23;98592.28;6288249;27;96387;-64
2023/08/08 11:20:56;;;;;;;;;2.00;2.00;;;;;25.57;85.51;98597.81;6287968;27;96523;-63
2023/08/08 11:24:16;;;;;;;;;1.60;1.60;;;;;25.42;84.92;98604.59;6245404;27;96371;-64
2023/08/08 11:27:20;;;;;;;;;1.80;1.80;;;;;25.49;87.18;98592.25;6280994;27;96907;-63
2023/08/08 11:30:29;;;;;;;;;3.00;2.00;;;;;25.34;83.89;98594.38;6287897;27;96405;-63
2023/08/08 11:33:33;;;;;;;;;2.20;2.20;;;;;25.62;86.37;98594.06;6270154;27;96571;-63
2023/08/08 11:36:37;;;;;;;;;3.00;3.00;;;;;26.12;88.09;98599.78;6287873;27;96457;-63
2023/08/08 11:39:43;;;;;;;;;2.00;2.00;;;;;26.27;81.00;98600.09;6252488;27;97214;-64
2023/08/08 11:42:46;;;;;;;;;3.00;2.80;;;;;26.06;79.11;98596.38;6269056;27;96649;-63
2023/08/08 11:45:51;;;;;;;;;2.00;2.00;;;;;25.93;79.90;98602.94;6289888;27;96428;-64
2023/08/08 11:48:55;;;;;;;;;2.00;1.20;;;;;25.29;81.78;98600.06;6264675;27;98465;-64
2023/08/08 11:51:59;;;;;;;;;2.00;2.00;;;;;25.27;84.86;98601.53;6273149;27;96835;-63
2023/08/08 11:55:06;;;;;;;;;3.00;3.00;;;;;25.13;85.64;98601.69;6291998;27;96205;-63
2023/08/08 11:58:14;;;;;;;;;2.00;2.00;;;;;24.70;84.94;98614.56;6292128;27;96344;-63
2023/08/08 12:01:20;;;;;;;;;3.00;2.75;;;;;24.49;90.53;98623.41;6287812;27;97597;-63
2023/08/08 12:04:23;;;;;;;;;5.00;5.00;;;;;24.48;95.65;98624.53;6290603;27;96483;-64
2023/08/08 12:07:33;;;;;;;;;5.20;5.20;;;;;24.32;98.37;98645.41;6291099;27;96336;-63
2023/08/08 12:10:37;;;;;;;;;1.80;1.80;;;;;23.75;100.00;98608.59;6251148;27;98421;-64
2023/08/08 12:13:43;;;;;;;;;3.40;3.40;;;;;23.75;100.00;98669.97;6271516;27;96672;-63
2023/08/08 12:16:47;;;;;;;;;3.00;2.40;;;;;23.43;100.00;98661.13;6290779;27;96443;-63
2023/08/08 12:19:50;;;;;;;;;4.60;4.40;;;;;23.10;100.00;98660.50;6254506;27;96724;-63
2023/08/08 12:22:54;;;;;;;;;4.00;4.00;;;;;22.86;100.00;98666.25;6256908;27;96583;-63
2023/08/08 12:26:00;;;;;;;;;2.60;1.80;;;;;22.60;100.00;98681.59;6288364;27;97684;-64
2023/08/08 12:29:03;;;;;;;;;2.00;2.00;;;;;22.49;100.00;98711.19;6290395;27;96537;-63
2023/08/08 12:32:07;;;;;;;;;3.00;3.00;;;;;22.07;100.00;98728.69;6289081;27;96547;-63
2023/08/08 12:35:11;;;;;;;;;3.00;3.00;;;;;21.75;100.00;98721.22;6271615;27;96828;-64
2023/08/08 12:38:15;;;;;;;;;2.75;2.25;;;;;21.52;100.00;98724.88;6289775;27;96378;-62
2023/08/08 12:41:19;;;;;;;;;2.00;2.00;;;;;21.36;100.00;98717.97;6289185;27;96856;-62
2023/08/08 12:44:23;;;;;;;;;2.20;2.00;;;;;21.43;100.00;98696.50;6290484;27;96878;-63
2023/08/08 12:47:26;;;;;;;;;3.00;3.00;;;;;21.55;100.00;98656.50;6290769;27;96537;-63
2023/08/08 12:50:29;;;;;;;;;3.00;3.00;;;;;22.17;100.00;98637.91;6270199;27;96622;-63
2023/08/08 12:53:32;;;;;;;;;2.00;2.00;;;;;22.48;100.00;98630.69;6272064;27;98467;-63
2023/08/08 12:56:37;;;;;;;;;3.00;2.00;;;;;23.02;100.00;98620.78;6277033;27;96848;-63
2023/08/08 12:59:40;;;;;;;;;4.25;4.25;;;;;23.27;100.00;98616.63;6284184;27;96789;-63
2023/08/08 13:02:44;;;;;;;;;2.60;2.60;;;;;23.38;100.00;98630.97;6288178;27;96604;-63
2023/08/08 13:05:48;;;;;;;;;2.75;2.75;;;;;23.68;100.00;98619.25;6286117;27;96986;-63
2023/08/08 13:08:51;;;;;;;;;3.00;3.00;;;;;23.63;100.00;98642.22;6285330;27;96481;-63
2023/08/08 13:11:57;;;;;;;;;2.75;2.75;;;;;23.78;100.00;98651.22;6269023;27;98375;-64
2023/08/08 13:15:00;;;;;;;;;3.00;2.25;;;;;23.72;100.00;98654.09;6288555;27;96927;-63
2023/08/08 13:18:04;;;;;;;;;2.00;2.00;;;;;23.85;100.00;98649.63;6268127;27;96711;-63
2023/08/08 13:21:07;;;;;;;;;2.75;2.75;;;;;24.01;100.00;98653.63;6287786;27;96340;-63
2023/08/08 13:24:12;;;;;;;;;3.00;2.00;;;;;24.50;100.00;98655.38;6289829;27;96518;-63
2023/08/08 13:27:17;;;;;;;;;2.60;2.00;;;;;24.93;100.00;98654.72;6271438;27;96466;-63
2023/08/08 13:30:21;;;;;;;;;2.00;2.00;;;;;24.89;100.00;98660.06;6288840;27;97203;-63
2023/08/08 13:33:24;;;;;;;;;3.00;3.00;;;;;24.80;100.00;98661.94;6276403;27;96451;-63
2023/08/08 13:36:28;;;;;;;;;3.00;3.00;;;;;24.45;100.00;98658.25;6287313;27;98130;-63
2023/08/08 13:39:31;;;;;;;;;2.00;2.00;;;;;24.61;100.00;98658.66;6274550;27;96665;-63
2023/08/08 13:42:36;;;;;;;;;1.00;1.00;;;;;24.77;100.00;98651.56;6284381;27;96288;-64
2023/08/08 13:45:39;;;;;;;;;2.00;2.00;;;;;24.87;100.00;98653.25;6284108;27;96401;-65
2023/08/08 13:48:43;;;;;;;;;2.00;2.00;;;;;24.91;100.00;98644.03;6262196;27;96711;-64
2023/08/08 13:51:46;;;;;;;;;3.00;3.00;;;;;25.03;100.00;98644.19;6285587;27;96650;-64
2023/08/08 13:54:54;;;;;;;;;2.50;2.50;;;;;24.99;100.00;98645.97;6266614;27;96889;-63
2023/08/08 13:57:58;;;;;;;;;2.40;2.40;;;;;24.76;100.00;98638.09;6286640;27;96542;-63
2023/08/08 14:01:01;;;;;;;;;2.40;2.00;;;;;24.60;100.00;98643.25;6263396;27;96450;-64
2023/08/08 14:04:05;;;;;;;;;4.00;4.00;;;;;24.63;99.64;98636.28;6281219;27;96642;-63
2023/08/08 14:07:09;;;;;;;;;1.80;1.80;;;;;24.67;100.00;98640.03;6245747;27;98434;-63
2023/08/08 14:10:12;;;;;;;;;2.40;2.40;;;;;24.84;100.00;98662.13;6267628;27;97363;-64
2023/08/08 14:13:18;;;;;;;;;1.00;1.00;;;;;24.91;96.70;98637.69;6284612;27;96521;-63
2023/08/08 14:16:22;;;;;;;;;3.00;3.00;;;;;24.93;94.63;98647.25;6268823;27;97142;-63
2023/08/08 14:19:25;;;;;;;;;3.00;3.00;;;;;24.87;93.96;98634.78;6267704;27;98959;-64